Time;durP1;ratioP1;P1;durP2;ratioP2;P2;SDS_P1;SDS_P2;PMS_P1;PMS_P2;Temp;Humidity;BMP_temperature;BMP_pressure;BME280_temperature;BME280_humidity;BME280_pressure;Samples;Min_cycle;Max_cycle;Signal;HPM_P1;HPM_P2
2021/12/10 00:00:20;;;;;;;2.03;1.45;;;-2.60;99.90;;;;;;5053454;28;20017;-69
2021/12/10 00:02:46;;;;;;;3.20;1.50;;;-2.70;99.90;;;;;;5052116;28;20020;-69
2021/12/10 00:05:19;;;;;;;2.42;1.38;;;-2.70;99.90;;;;;;5053458;28;20383;-69
2021/12/10 00:07:46;;;;;;;3.50;1.92;;;-2.70;99.90;;;;;;5053328;28;20078;-69
2021/12/10 00:10:17;;;;;;;3.33;1.90;;;-2.70;99.90;;;;;;5053378;28;20025;-69
2021/12/10 00:12:50;;;;;;;4.57;2.15;;;-2.70;99.90;;;;;;5053605;28;20066;-69
2021/12/10 00:15:21;;;;;;;3.67;2.05;;;-2.80;99.90;;;;;;5053390;28;20033;-69
2021/12/10 00:17:48;;;;;;;4.40;2.40;;;-2.80;99.90;;;;;;5053216;28;20029;-69
2021/12/10 00:20:15;;;;;;;4.97;2.65;;;-2.70;99.90;;;;;;5053208;28;20440;-69
2021/12/10 00:22:51;;;;;;;4.53;2.67;;;-2.80;99.90;;;;;;5053286;28;20142;-69
2021/12/10 00:25:20;;;;;;;3.25;1.92;;;-2.80;99.90;;;;;;5053426;28;20108;-69
2021/12/10 00:27:47;;;;;;;3.53;2.00;;;-2.80;99.90;;;;;;5051876;28;20047;-69
2021/12/10 00:30:18;;;;;;;3.72;1.67;;;-2.90;99.90;;;;;;5053151;28;20497;-69
2021/12/10 00:32:58;;;;;;;3.72;1.92;;;-3.00;99.90;;;;;;5053448;28;20037;-69
2021/12/10 00:35:27;;;;;;;3.20;1.85;;;-3.00;99.90;;;;;;5053645;28;20025;-69
2021/12/10 00:37:53;;;;;;;2.90;1.60;;;-3.00;99.90;;;;;;5053014;28;20024;-68
2021/12/10 00:40:21;;;;;;;4.13;2.13;;;-3.10;99.90;;;;;;5053039;28;20013;-68
2021/12/10 00:42:47;;;;;;;4.85;1.98;;;-3.10;99.90;;;;;;5051657;28;20021;-69
2021/12/10 00:45:15;;;;;;;5.03;2.90;;;-3.20;99.90;;;;;;5054500;28;20016;-69
2021/12/10 00:47:41;;;;;;;5.07;2.20;;;-3.20;99.90;;;;;;5055760;28;20048;-69
2021/12/10 00:50:13;;;;;;;5.60;2.58;;;-3.30;99.90;;;;;;5057052;28;20028;-69
2021/12/10 00:52:42;;;;;;;5.13;2.55;;;-3.30;99.90;;;;;;5057653;28;20021;-69
2021/12/10 00:55:08;;;;;;;3.72;2.30;;;-3.40;99.90;;;;;;5057741;28;20412;-69
2021/12/10 00:57:34;;;;;;;7.07;3.10;;;-3.40;99.90;;;;;;5057346;28;20032;-69
2021/12/10 01:00:00;;;;;;;7.43;2.80;;;-3.40;99.90;;;;;;5056884;28;20029;-69
2021/12/10 01:02:26;;;;;;;6.72;2.70;;;-3.40;99.90;;;;;;5056737;28;20033;-69
2021/12/10 01:04:56;;;;;;;3.42;1.88;;;-3.50;99.90;;;;;;5056506;28;20029;-69
2021/12/10 01:07:25;;;;;;;5.70;2.28;;;-3.50;99.90;;;;;;5056696;28;20024;-69
2021/12/10 01:09:53;;;;;;;5.65;2.60;;;-3.50;99.90;;;;;;5056728;28;20021;-69
2021/12/10 01:12:37;;;;;;;5.03;2.20;;;-3.50;99.90;;;;;;5057301;28;20120;-69
2021/12/10 01:28:51;;;;;;;5.43;2.53;;;-3.70;99.90;;;;;;5056541;28;20029;-69
2021/12/10 01:31:17;;;;;;;7.10;3.60;;;-3.60;99.90;;;;;;5056267;28;20021;-69
2021/12/10 01:33:43;;;;;;;6.78;3.67;;;-3.60;99.90;;;;;;5054953;28;20402;-69
2021/12/10 01:36:09;;;;;;;6.00;3.28;;;-3.60;99.90;;;;;;5056101;28;20035;-69
2021/12/10 01:38:39;;;;;;;5.50;2.78;;;-3.50;99.90;;;;;;5056112;28;20017;-72
2021/12/10 01:41:09;;;;;;;3.97;2.25;;;-3.40;99.90;;;;;;5056108;28;20033;-70
2021/12/10 01:43:38;;;;;;;5.97;2.20;;;-3.30;99.90;;;;;;5056282;28;20025;-70
2021/12/10 01:46:11;;;;;;;4.40;2.20;;;-3.30;99.90;;;;;;5054608;28;20021;-70
2021/12/10 01:48:51;;;;;;;4.22;2.20;;;-3.20;99.90;;;;;;5056229;28;20025;-70
2021/12/10 01:51:22;;;;;;;4.90;2.60;;;-3.10;99.90;;;;;;5056526;28;20021;-70
2021/12/10 01:53:55;;;;;;;4.47;2.55;;;-3.10;99.90;;;;;;5056111;28;20029;-70
2021/12/10 01:56:25;;;;;;;5.05;2.45;;;-3.10;99.90;;;;;;5055534;28;20037;-70
2021/12/10 01:58:52;;;;;;;4.20;1.88;;;-3.00;99.90;;;;;;5056021;28;20025;-70
2021/12/10 02:01:22;;;;;;;6.03;2.40;;;-3.10;99.90;;;;;;5055688;28;20033;-70
2021/12/10 02:03:49;;;;;;;8.02;2.85;;;-3.10;99.90;;;;;;5054247;28;20029;-70
2021/12/10 02:06:15;;;;;;;5.03;2.30;;;-3.00;99.90;;;;;;5055773;28;20024;-70
2021/12/10 02:08:42;;;;;;;4.68;1.90;;;-3.00;99.90;;;;;;5055536;28;20473;-70
2021/12/10 02:11:08;;;;;;;3.55;1.60;;;-3.10;99.90;;;;;;5055488;28;20025;-70
2021/12/10 02:13:35;;;;;;;3.10;1.45;;;-3.10;99.90;;;;;;5055986;28;20029;-70
2021/12/10 02:16:01;;;;;;;3.35;1.40;;;-3.10;99.90;;;;;;5055599;28;20033;-70
2021/12/10 02:18:27;;;;;;;3.85;1.30;;;-3.20;99.90;;;;;;5055648;28;20021;-70
2021/12/10 02:21:01;;;;;;;2.42;1.45;;;-3.30;99.90;;;;;;5055589;28;20381;-70
2021/12/10 02:23:32;;;;;;;3.92;1.70;;;-3.30;99.90;;;;;;5053811;28;20116;-70
2021/12/10 02:25:58;;;;;;;3.72;2.28;;;-3.30;99.90;;;;;;5055501;28;20059;-70
2021/12/10 02:28:24;;;;;;;8.55;2.92;;;-3.20;99.90;;;;;;5055735;28;20017;-70
2021/12/10 02:30:49;;;;;;;9.43;4.07;;;-3.20;99.90;;;;;;5055122;28;20039;-69
2021/12/10 02:33:16;;;;;;;7.82;3.58;;;-3.20;99.90;;;;;;5053859;28;20031;-70
2021/12/10 02:35:43;;;;;;;6.97;3.30;;;-3.20;99.90;;;;;;5054997;28;20029;-70
2021/12/10 02:38:09;;;;;;;11.00;4.03;;;-3.10;99.90;;;;;;5055022;28;20538;-70
2021/12/10 02:40:38;;;;;;;8.02;3.47;;;-3.10;99.90;;;;;;5054998;28;20029;-70
2021/12/10 02:43:10;;;;;;;8.00;3.58;;;-3.10;99.90;;;;;;5054829;28;20017;-70
2021/12/10 02:45:38;;;;;;;6.90;3.35;;;-3.10;99.90;;;;;;5055112;28;20476;-70
2021/12/10 02:48:05;;;;;;;10.73;3.88;;;-3.00;99.90;;;;;;5054835;28;20036;-70
2021/12/10 02:50:32;;;;;;;8.85;4.28;;;-3.00;99.90;;;;;;5054845;28;20025;-69
2021/12/10 02:52:59;;;;;;;8.20;3.92;;;-3.00;99.90;;;;;;5053740;28;20016;-69
2021/12/10 02:55:25;;;;;;;9.05;3.50;;;-3.00;99.90;;;;;;5054643;28;20029;-69
2021/12/10 02:57:59;;;;;;;10.68;3.90;;;-3.00;99.90;;;;;;5053135;28;20021;-69
2021/12/10 03:00:30;;;;;;;7.10;2.92;;;-3.00;99.90;;;;;;5054882;28;20021;-69
2021/12/10 03:02:56;;;;;;;3.92;1.90;;;-3.10;99.90;;;;;;5054813;28;20027;-69
2021/12/10 03:05:22;;;;;;;7.80;2.50;;;-3.10;99.90;;;;;;5054439;28;20025;-70
2021/12/10 03:07:48;;;;;;;7.50;2.70;;;-3.20;99.90;;;;;;5053473;28;20032;-70
2021/12/10 03:10:20;;;;;;;6.18;2.20;;;-3.20;99.90;;;;;;5053103;28;20025;-70
2021/12/10 03:12:46;;;;;;;5.53;2.40;;;-3.30;99.90;;;;;;5054617;28;20017;-70
2021/12/10 03:15:14;;;;;;;6.93;2.50;;;-3.30;99.90;;;;;;5054691;28;20029;-69
2021/12/10 03:17:42;;;;;;;5.97;2.67;;;-3.20;99.90;;;;;;5054257;28;20032;-69
2021/12/10 03:20:10;;;;;;;7.90;2.08;;;-3.20;99.90;;;;;;5054207;28;20063;-69
2021/12/10 03:22:37;;;;;;;3.70;1.90;;;-3.20;99.90;;;;;;5054526;28;20090;-70
2021/12/10 03:25:07;;;;;;;4.68;2.00;;;-3.20;99.90;;;;;;5053097;28;20025;-69
2021/12/10 03:27:33;;;;;;;3.95;1.95;;;-3.30;99.90;;;;;;5054240;28;20025;-70
2021/12/10 03:29:58;;;;;;;4.55;2.00;;;-3.20;99.90;;;;;;5054002;28;20457;-70
2021/12/10 03:32:30;;;;;;;3.70;1.88;;;-3.30;99.90;;;;;;5053915;28;20462;-69
2021/12/10 03:35:03;;;;;;;4.15;1.92;;;-3.30;99.90;;;;;;5052686;28;20021;-69
2021/12/10 03:37:29;;;;;;;4.03;1.85;;;-3.20;99.90;;;;;;5052621;28;20021;-69
2021/12/10 03:39:55;;;;;;;3.17;1.35;;;-3.30;99.90;;;;;;5053787;28;20535;-69
2021/12/10 03:42:22;;;;;;;5.10;1.70;;;-3.30;99.90;;;;;;5053721;28;20044;-70
2021/12/10 03:44:48;;;;;;;3.83;1.73;;;-3.30;99.90;;;;;;5053609;28;20395;-69
2021/12/10 03:47:14;;;;;;;4.38;1.70;;;-3.40;99.90;;;;;;5053589;28;20025;-69
2021/12/10 03:49:41;;;;;;;3.85;1.55;;;-3.40;99.90;;;;;;5053611;28;20538;-69
2021/12/10 03:52:08;;;;;;;4.47;1.80;;;-3.50;99.90;;;;;;5053665;28;20021;-69
2021/12/10 03:54:34;;;;;;;3.60;1.70;;;-3.60;99.90;;;;;;5053517;28;20150;-70
2021/12/10 03:57:00;;;;;;;5.47;1.83;;;-3.60;99.90;;;;;;5053969;28;20032;-69
2021/12/10 03:59:26;;;;;;;3.85;1.73;;;-3.50;99.90;;;;;;5053555;28;20497;-70
2021/12/10 04:01:55;;;;;;;4.47;1.70;;;-3.50;99.90;;;;;;5053450;28;20133;-70
2021/12/10 04:04:31;;;;;;;4.88;1.80;;;-3.50;99.90;;;;;;5053272;28;20017;-70
2021/12/10 04:07:01;;;;;;;6.68;2.53;;;-3.50;99.90;;;;;;5053398;28;20413;-70
2021/12/10 04:09:27;;;;;;;5.57;2.50;;;-3.50;99.90;;;;;;5053426;28;20027;-70
2021/12/10 04:11:55;;;;;;;3.58;1.75;;;-3.60;99.90;;;;;;5053410;28;20075;-69
2021/12/10 04:14:21;;;;;;;5.70;2.17;;;-3.60;99.90;;;;;;5053415;28;20071;-70
2021/12/10 04:16:54;;;;;;;6.47;2.40;;;-3.60;99.90;;;;;;5053525;28;20154;-70
2021/12/10 04:19:20;;;;;;;5.35;2.10;;;-3.50;99.90;;;;;;5053265;28;20063;-69
2021/12/10 04:21:46;;;;;;;6.97;2.42;;;-3.50;99.90;;;;;;5054243;28;20036;-69
2021/12/10 04:24:16;;;;;;;4.93;2.33;;;-3.50;99.90;;;;;;5053462;28;20091;-69
2021/12/10 04:26:42;;;;;;;6.85;2.40;;;-3.40;99.90;;;;;;5053214;28;20063;-69
2021/12/10 04:29:08;;;;;;;4.53;2.25;;;-3.40;99.90;;;;;;5051681;28;20503;-70
2021/12/10 04:31:34;;;;;;;3.63;1.75;;;-3.40;99.90;;;;;;5050044;28;20029;-69
2021/12/10 04:34:00;;;;;;;4.68;1.85;;;-3.40;99.90;;;;;;5058828;28;20034;-69
2021/12/10 04:36:26;;;;;;;4.28;1.80;;;-3.40;99.90;;;;;;5064280;28;20029;-70
2021/12/10 04:38:52;;;;;;;4.93;2.10;;;-3.40;99.90;;;;;;5045462;28;20036;-70
2021/12/10 04:41:18;;;;;;;5.53;2.50;;;-3.40;99.90;;;;;;5066679;28;20031;-70
2021/12/10 04:43:47;;;;;;;6.88;2.47;;;-3.40;99.90;;;;;;5058540;28;20029;-70
2021/12/10 04:46:13;;;;;;;10.73;2.15;;;-3.50;99.90;;;;;;5051082;28;20103;-70
2021/12/10 04:48:55;;;;;;;8.73;1.80;;;-3.50;99.90;;;;;;5050777;28;20440;-70
2021/12/10 04:51:25;;;;;;;4.38;2.03;;;-3.60;99.90;;;;;;5050835;28;20029;-70
2021/12/10 04:53:53;;;;;;;5.40;2.00;;;-3.70;99.90;;;;;;5050847;28;20118;-70
2021/12/10 04:56:18;;;;;;;5.35;2.00;;;-3.70;99.90;;;;;;5050561;28;20024;-70
2021/12/10 04:58:44;;;;;;;5.05;1.92;;;-3.70;99.90;;;;;;5049273;28;20477;-70
2021/12/10 05:01:10;;;;;;;10.00;2.55;;;-3.70;99.90;;;;;;5051986;28;20025;-69
2021/12/10 05:03:36;;;;;;;6.70;2.30;;;-3.60;99.90;;;;;;5052453;28;20096;-69
2021/12/10 05:06:03;;;;;;;9.10;2.85;;;-3.60;99.90;;;;;;5052457;28;20059;-70
2021/12/10 05:08:34;;;;;;;10.23;3.47;;;-3.60;99.90;;;;;;5052749;28;20021;-70
2021/12/10 05:11:01;;;;;;;10.00;2.92;;;-3.60;99.90;;;;;;5051499;28;20113;-70
2021/12/10 05:13:28;;;;;;;8.00;3.67;;;-3.60;99.90;;;;;;5052552;28;20449;-69
2021/12/10 05:15:58;;;;;;;8.10;3.67;;;-3.60;99.90;;;;;;5052726;28;20029;-69
2021/12/10 05:18:37;;;;;;;10.23;4.88;;;-3.60;99.90;;;;;;5051145;28;20025;-69
2021/12/10 05:21:06;;;;;;;9.05;4.22;;;-3.70;99.90;;;;;;5051651;28;20029;-68
2021/12/10 05:23:32;;;;;;;10.75;5.07;;;-3.70;99.90;;;;;;5052184;28;20029;-68
2021/12/10 05:25:57;;;;;;;7.95;3.90;;;-3.70;99.90;;;;;;5052775;28;20079;-68
2021/12/10 05:28:23;;;;;;;9.93;3.72;;;-3.60;99.90;;;;;;5053307;28;20025;-68
2021/12/10 05:30:54;;;;;;;8.60;3.97;;;-3.60;99.90;;;;;;5053290;28;20064;-68
2021/12/10 05:33:20;;;;;;;;;;;-3.60;99.90;;;;;;5055052;28;20029;-69
2021/12/10 05:35:47;;;;;;;8.27;3.92;;;-3.70;99.90;;;;;;5056211;28;19911;-69
2021/12/10 05:38:17;;;;;;;8.80;3.40;;;-3.70;99.90;;;;;;5055936;28;20507;-68
2021/12/10 05:40:43;;;;;;;9.00;4.03;;;-3.80;99.90;;;;;;5055892;28;20021;-68
2021/12/10 05:43:09;;;;;;;7.75;3.38;;;-3.80;99.90;;;;;;5055962;28;20063;-68
2021/12/10 05:45:34;;;;;;;8.43;3.78;;;-3.80;99.90;;;;;;5056070;28;20052;-68
2021/12/10 05:48:01;;;;;;;8.38;4.15;;;-3.80;99.90;;;;;;5056140;28;20469;-68
2021/12/10 05:50:29;;;;;;;8.70;4.03;;;-3.80;99.90;;;;;;5056282;28;20028;-68
2021/12/10 05:52:55;;;;;;;8.93;4.22;;;-3.80;99.90;;;;;;5054316;28;20103;-68
2021/12/10 05:55:21;;;;;;;36.40;18.92;;;-3.90;99.90;;;;;;5055738;28;20562;-68
2021/12/10 05:57:47;;;;;;;11.95;7.45;;;-3.90;99.90;;;;;;5055757;28;20021;-68
2021/12/10 06:00:26;;;;;;;12.02;6.47;;;-4.10;99.90;;;;;;5055550;28;20029;-68
2021/12/10 06:02:53;;;;;;;14.07;6.05;;;-4.30;99.90;;;;;;5055726;28;20028;-68
2021/12/10 06:05:20;;;;;;;37.45;11.55;;;-4.40;99.90;;;;;;5055812;28;20063;-68
2021/12/10 06:07:45;;;;;;;64.07;18.92;;;-4.40;99.90;;;;;;5054089;28;20075;-68
2021/12/10 06:10:13;;;;;;;48.15;16.80;;;-4.40;99.90;;;;;;5055605;28;20426;-68
2021/12/10 06:12:40;;;;;;;17.15;8.07;;;-4.50;99.90;;;;;;5055211;28;20021;-68
2021/12/10 06:15:07;;;;;;;13.80;5.60;;;-4.60;99.90;;;;;;5055201;28;20095;-68
2021/12/10 06:17:33;;;;;;;10.63;5.25;;;-4.80;99.90;;;;;;5055033;28;20097;-68
2021/12/10 06:19:59;;;;;;;12.07;6.07;;;-5.00;99.90;;;;;;5055142;28;20032;-68
2021/12/10 06:22:26;;;;;;;10.63;4.93;;;-5.10;99.90;;;;;;5055101;28;20397;-68
2021/12/10 06:24:52;;;;;;;11.13;4.03;;;-5.20;99.90;;;;;;5054941;28;20035;-68
2021/12/10 06:27:19;;;;;;;6.90;3.38;;;-5.30;99.90;;;;;;5054951;28;20029;-68
2021/12/10 06:29:44;;;;;;;6.93;3.67;;;-5.30;99.90;;;;;;5054906;28;20021;-68
2021/12/10 06:32:11;;;;;;;10.50;4.18;;;-5.30;99.90;;;;;;5054769;28;20024;-68
2021/12/10 06:34:37;;;;;;;11.55;4.72;;;-5.40;99.90;;;;;;5053468;28;20127;-68
2021/12/10 06:37:04;;;;;;;12.55;4.80;;;-5.40;99.90;;;;;;5054634;28;20082;-68
2021/12/10 06:39:30;;;;;;;14.73;5.50;;;-5.40;99.90;;;;;;5054988;28;20108;-68
2021/12/10 06:41:56;;;;;;;9.50;4.28;;;-5.50;99.90;;;;;;5055789;28;20100;-68
2021/12/10 06:44:23;;;;;;;11.68;4.80;;;-5.50;99.90;;;;;;5055402;28;20121;-68
2021/12/10 06:46:49;;;;;;;12.02;4.78;;;-5.50;99.90;;;;;;5054684;28;20025;-68
2021/12/10 06:49:17;;;;;;;11.30;4.93;;;-5.60;99.90;;;;;;5054519;28;20029;-68
2021/12/10 06:51:43;;;;;;;11.13;4.30;;;-5.60;99.90;;;;;;5054398;28;20021;-68
2021/12/10 06:54:09;;;;;;;11.68;5.45;;;-5.70;99.90;;;;;;5054398;28;20078;-68
2021/12/10 06:56:36;;;;;;;16.45;6.32;;;-5.70;99.90;;;;;;5054279;28;20082;-68
2021/12/10 06:59:05;;;;;;;15.35;5.55;;;-5.70;99.90;;;;;;5052918;28;20515;-68
2021/12/10 07:01:35;;;;;;;12.00;5.30;;;-5.70;99.90;;;;;;5054437;28;20330;-68
2021/12/10 07:04:04;;;;;;;13.07;5.80;;;-5.70;99.90;;;;;;5054535;28;20116;-68
2021/12/10 07:06:30;;;;;;;10.15;4.70;;;-5.70;99.90;;;;;;5054054;28;20021;-68
2021/12/10 07:08:59;;;;;;;11.73;4.47;;;-5.80;99.90;;;;;;5054052;28;20056;-69
2021/12/10 07:11:26;;;;;;;11.57;4.63;;;-6.00;99.90;;;;;;5054563;28;20017;-68
2021/12/10 07:13:56;;;;;;;12.65;4.82;;;-6.10;99.90;;;;;;5054181;28;20091;-67
2021/12/10 07:16:25;;;;;;;12.40;4.57;;;-6.10;99.90;;;;;;5054484;28;20025;-68
2021/12/10 07:18:53;;;;;;;9.40;4.68;;;-6.10;99.90;;;;;;5052526;28;20025;-68
2021/12/10 07:21:19;;;;;;;12.32;4.20;;;-6.20;99.90;;;;;;5053769;28;20525;-68
2021/12/10 07:23:45;;;;;;;10.07;3.92;;;-6.20;99.90;;;;;;5053593;28;20037;-68
2021/12/10 07:26:12;;;;;;;10.80;4.03;;;-6.30;99.90;;;;;;5053765;28;20492;-68
2021/12/10 07:28:37;;;;;;;12.57;4.82;;;-6.30;99.90;;;;;;5052348;28;20441;-68
2021/12/10 07:31:04;;;;;;;10.68;3.90;;;-6.40;99.90;;;;;;5053912;28;20012;-68
2021/12/10 07:33:29;;;;;;;7.72;4.30;;;-6.50;99.90;;;;;;5053767;28;20128;-68
2021/12/10 07:35:56;;;;;;;10.48;4.22;;;-6.50;99.90;;;;;;5053443;28;20520;-68
2021/12/10 07:38:21;;;;;;;11.82;5.40;;;-6.60;99.90;;;;;;5053407;28;20111;-68
2021/12/10 07:40:48;;;;;;;12.23;6.28;;;-6.50;99.90;;;;;;5053393;28;20075;-68
2021/12/10 07:43:14;;;;;;;10.15;4.95;;;-6.50;99.90;;;;;;5052168;28;20086;-68
2021/12/10 07:45:42;;;;;;;18.60;8.60;;;-6.40;99.90;;;;;;5053347;28;20020;-68
2021/12/10 07:48:11;;;;;;;19.52;8.45;;;-6.50;99.90;;;;;;5053240;28;20025;-68
2021/12/10 07:50:42;;;;;;;16.75;8.25;;;-6.50;99.90;;;;;;5053172;28;20104;-68
2021/12/10 07:53:08;;;;;;;10.10;5.22;;;-6.40;99.90;;;;;;5053543;28;20067;-69
2021/12/10 07:55:36;;;;;;;10.40;4.88;;;-6.40;99.90;;;;;;5053136;28;20045;-69
2021/12/10 07:58:04;;;;;;;9.27;4.22;;;-6.50;99.90;;;;;;5053113;28;20028;-68
2021/12/10 08:00:33;;;;;;;9.13;4.00;;;-6.50;99.90;;;;;;5053088;28;20021;-68
2021/12/10 08:02:59;;;;;;;12.00;5.15;;;-6.60;99.90;;;;;;5051733;28;20033;-68
2021/12/10 08:05:25;;;;;;;21.23;8.23;;;-6.60;99.90;;;;;;5052923;28;20025;-68
2021/12/10 08:07:53;;;;;;;11.57;5.07;;;-6.60;99.90;;;;;;5053044;28;20021;-68
2021/12/10 08:10:19;;;;;;;11.48;4.53;;;-6.60;99.90;;;;;;5052858;28;20115;-69
2021/12/10 08:12:45;;;;;;;14.95;5.18;;;-6.60;99.90;;;;;;5052959;28;20025;-68
2021/12/10 08:15:12;;;;;;;8.35;4.18;;;-6.50;99.90;;;;;;5053189;28;20469;-68
2021/12/10 08:17:38;;;;;;;11.07;4.75;;;-6.50;99.90;;;;;;5051593;28;20029;-68
2021/12/10 08:20:07;;;;;;;9.30;4.75;;;-6.50;99.90;;;;;;5051515;28;20469;-67
2021/12/10 08:22:33;;;;;;;11.88;4.53;;;-6.50;99.90;;;;;;5053200;28;20032;-69
2021/12/10 08:24:59;;;;;;;11.23;4.20;;;-6.50;99.90;;;;;;5052685;28;20025;-68
2021/12/10 08:27:24;;;;;;;9.27;3.95;;;-6.50;99.90;;;;;;5052732;28;20367;-68
2021/12/10 08:29:50;;;;;;;12.60;4.68;;;-6.50;99.90;;;;;;5052716;28;20021;-68
2021/12/10 08:32:20;;;;;;;9.60;4.47;;;-6.50;99.90;;;;;;5052687;28;20028;-67
2021/12/10 08:34:47;;;;;;;7.82;3.97;;;-6.40;99.90;;;;;;5052866;28;20021;-68
2021/12/10 08:37:13;;;;;;;10.82;4.35;;;-6.30;99.90;;;;;;5052636;28;20119;-68
2021/12/10 08:39:39;;;;;;;8.88;4.47;;;-6.20;99.90;;;;;;5052728;28;20032;-68
2021/12/10 08:42:06;;;;;;;9.40;4.68;;;-6.20;99.90;;;;;;5051292;28;20389;-68
2021/12/10 08:44:32;;;;;;;9.32;3.90;;;-6.30;99.90;;;;;;5052495;28;20032;-68
2021/12/10 08:46:57;;;;;;;8.07;3.90;;;-6.20;99.90;;;;;;5052566;28;20029;-68
2021/12/10 08:49:23;;;;;;;10.25;4.40;;;-6.20;99.90;;;;;;5052486;28;20033;-68
2021/12/10 08:51:52;;;;;;;11.48;4.35;;;-6.10;99.90;;;;;;5052579;28;20025;-68
2021/12/10 08:54:20;;;;;;;9.77;3.97;;;-6.10;99.90;;;;;;5052575;28;20021;-68
2021/12/10 08:56:46;;;;;;;9.55;3.70;;;-6.10;99.90;;;;;;5052439;28;20500;-68
2021/12/10 08:59:14;;;;;;;10.07;4.13;;;-6.10;99.90;;;;;;5052665;28;20040;-68
2021/12/10 09:01:44;;;;;;;11.80;4.00;;;-6.10;99.90;;;;;;5052722;28;20017;-68
2021/12/10 09:04:12;;;;;;;10.05;4.13;;;-6.00;99.90;;;;;;5052358;28;20435;-69
2021/12/10 09:06:49;;;;;;;9.60;4.25;;;-6.00;99.90;;;;;;5054461;28;20143;-69
2021/12/10 09:09:17;;;;;;;8.85;4.80;;;-6.00;99.90;;;;;;5056562;28;20029;-68
2021/12/10 09:11:47;;;;;;;15.70;7.07;;;-6.00;99.90;;;;;;5056442;28;20481;-68
2021/12/10 09:14:14;;;;;;;16.60;6.03;;;-6.00;99.90;;;;;;5056552;28;20112;-68
2021/12/10 09:16:40;;;;;;;11.50;4.10;;;-6.00;99.90;;;;;;5056318;28;20039;-68
2021/12/10 09:19:10;;;;;;;9.10;4.00;;;-6.00;99.90;;;;;;5056070;28;20416;-68
2021/12/10 09:21:36;;;;;;;10.38;4.90;;;-5.90;99.90;;;;;;5056008;28;20021;-68
2021/12/10 09:24:06;;;;;;;10.80;3.75;;;-5.90;99.90;;;;;;5054566;28;20481;-68
2021/12/10 09:26:35;;;;;;;8.45;4.07;;;-5.90;99.90;;;;;;5056294;28;20059;-67
2021/12/10 09:29:04;;;;;;;7.22;3.47;;;-5.80;99.90;;;;;;5056086;28;20492;-68
2021/12/10 09:31:29;;;;;;;10.65;4.32;;;-5.70;99.90;;;;;;5054543;28;20045;-68
2021/12/10 09:33:57;;;;;;;9.82;4.65;;;-5.50;99.90;;;;;;5055804;28;20433;-68
2021/12/10 09:36:24;;;;;;;10.00;4.80;;;-5.30;99.90;;;;;;5055886;28;20082;-68
2021/12/10 09:38:50;;;;;;;9.70;4.95;;;-5.10;99.90;;;;;;5055590;28;20037;-68
2021/12/10 09:41:17;;;;;;;12.38;5.13;;;-5.00;99.90;;;;;;5055954;28;20436;-68
2021/12/10 09:43:43;;;;;;;12.63;5.45;;;-4.90;99.90;;;;;;5056097;28;20036;-68
2021/12/10 09:46:11;;;;;;;8.20;4.80;;;-4.80;99.90;;;;;;5055744;28;20476;-68
2021/12/10 09:48:40;;;;;;;10.23;4.57;;;-4.70;99.90;;;;;;5055487;28;20520;-68
2021/12/10 09:51:12;;;;;;;10.75;5.05;;;-4.70;99.90;;;;;;5055542;28;20045;-68
2021/12/10 09:53:40;;;;;;;13.90;5.43;;;-4.60;99.90;;;;;;5054246;28;20029;-68
2021/12/10 09:56:07;;;;;;;11.05;4.93;;;-4.60;99.90;;;;;;5055358;28;20029;-68
2021/12/10 09:58:34;;;;;;;9.77;4.15;;;-4.50;99.90;;;;;;5055393;28;20075;-68
2021/12/10 10:01:08;;;;;;;10.55;3.58;;;-4.50;99.90;;;;;;5055296;28;20032;-68
2021/12/10 10:03:38;;;;;;;8.27;3.95;;;-4.40;99.90;;;;;;5055551;28;20033;-68
2021/12/10 10:06:05;;;;;;;10.10;4.20;;;-4.30;99.90;;;;;;5055116;28;20090;-68
2021/12/10 10:08:32;;;;;;;13.05;5.07;;;-4.20;99.90;;;;;;5055433;28;20307;-69
2021/12/10 10:11:08;;;;;;;8.63;4.82;;;-4.00;99.90;;;;;;5055150;28;20193;-68
2021/12/10 10:13:39;;;;;;;15.38;5.32;;;-4.00;99.90;;;;;;5055040;28;20092;-68
2021/12/10 10:16:06;;;;;;;11.18;5.55;;;-3.90;99.90;;;;;;5055696;28;20096;-68
2021/12/10 10:18:34;;;;;;;10.73;5.28;;;-3.90;99.90;;;;;;5054567;28;20025;-68
2021/12/10 10:21:07;;;;;;;14.48;6.38;;;-3.80;99.90;;;;;;5055299;28;20029;-68
2021/12/10 10:23:32;;;;;;;14.02;7.15;;;-3.70;99.90;;;;;;5054724;28;20440;-68
2021/12/10 10:26:04;;;;;;;9.73;5.05;;;-3.60;99.90;;;;;;5055144;28;20416;-68
2021/12/10 10:28:30;;;;;;;11.07;5.20;;;-3.50;99.90;;;;;;5054814;28;20473;-68
2021/12/10 10:31:03;;;;;;;12.15;6.40;;;-3.50;99.90;;;;;;5055093;28;20027;-68
2021/12/10 10:33:34;;;;;;;11.10;5.78;;;-3.40;99.90;;;;;;5054802;28;20025;-68
2021/12/10 10:36:05;;;;;;;11.10;5.78;;;-3.30;99.90;;;;;;5054944;28;20440;-68
2021/12/10 10:38:31;;;;;;;;;;;-3.30;99.90;;;;;;5055259;28;20029;-68
2021/12/10 10:41:04;;;;;;;11.25;5.07;;;-3.30;99.90;;;;;;5054775;28;19912;-68
2021/12/10 10:43:30;;;;;;;9.52;4.20;;;-3.20;99.90;;;;;;5054747;28;20190;-68
2021/12/10 10:45:57;;;;;;;16.80;8.68;;;-3.00;99.90;;;;;;5053438;28;20118;-68
2021/12/10 10:48:24;;;;;;;19.08;8.07;;;-2.90;99.90;;;;;;5054493;28;20032;-68
2021/12/10 10:51:07;;;;;;;9.57;4.40;;;-2.70;99.90;;;;;;5054470;28;20025;-68
2021/12/10 10:53:44;;;;;;;10.98;4.30;;;-2.60;99.90;;;;;;5054801;28;20032;-68
2021/12/10 10:56:15;;;;;;;11.45;4.40;;;-2.70;99.90;;;;;;5054723;28;20482;-68
2021/12/10 10:58:54;;;;;;;13.05;5.15;;;-2.60;99.90;;;;;;5054821;28;20036;-68
2021/12/10 11:01:31;;;;;;;9.65;4.35;;;-2.50;99.90;;;;;;5054679;28;20043;-68
2021/12/10 11:04:13;;;;;;;6.72;3.70;;;-2.50;99.90;;;;;;5053067;28;20064;-68
2021/12/10 11:06:43;;;;;;;7.03;3.47;;;-2.40;99.90;;;;;;5054435;28;20021;-68
2021/12/10 11:09:14;;;;;;;8.75;3.92;;;-2.20;99.90;;;;;;5054513;28;20504;-68
2021/12/10 11:11:45;;;;;;;;;;;-2.10;99.90;;;;;;5054917;28;20139;-68
2021/12/10 11:14:20;;;;;;;12.10;5.43;;;-1.90;99.90;;;;;;5054236;28;19928;-68
2021/12/10 11:16:49;;;;;;;15.50;8.02;;;-1.70;99.90;;;;;;5054146;28;20082;-68
2021/12/10 11:19:28;;;;;;;11.95;6.60;;;-1.60;99.90;;;;;;5054142;28;20028;-68
2021/12/10 11:22:12;;;;;;;12.90;6.03;;;-1.50;99.90;;;;;;5054432;28;20102;-68
2021/12/10 11:24:46;;;;;;;11.07;5.82;;;-1.40;99.90;;;;;;5052663;28;20033;-68
2021/12/10 11:27:18;;;;;;;9.95;5.35;;;-1.30;99.90;;;;;;5054175;28;20025;-68
2021/12/10 11:30:02;;;;;;;9.15;3.80;;;-1.30;99.90;;;;;;5053182;28;20025;-68
2021/12/10 11:32:35;;;;;;;8.38;3.85;;;-1.20;99.90;;;;;;5053814;28;20052;-69
2021/12/10 11:35:01;;;;;;;7.80;4.03;;;-1.20;99.90;;;;;;5054358;28;20024;-68
2021/12/10 11:37:48;;;;;;;9.77;4.10;;;-1.10;99.90;;;;;;5053716;28;20028;-68
2021/12/10 11:40:52;;;;;;;10.77;4.30;;;-1.00;99.90;;;;;;5053724;28;20033;-68
2021/12/10 11:48:57;;;;;;;10.60;5.25;;;-0.80;99.90;;;;;;5053721;28;20101;-68
2021/12/10 11:51:41;;;;;;;29.42;12.35;;;-0.80;99.90;;;;;;5053644;28;20017;-68
2021/12/10 11:54:29;;;;;;;38.05;17.20;;;-0.70;99.90;;;;;;5052280;28;20106;-68
2021/12/10 11:57:21;;;;;;;37.33;17.05;;;-0.80;99.90;;;;;;5052873;28;20037;-68
2021/12/10 11:59:55;;;;;;;48.42;19.83;;;-0.90;99.90;;;;;;5053320;28;20400;-68
2021/12/10 12:02:34;;;;;;;25.55;10.05;;;-1.00;99.90;;;;;;5053761;28;20025;-68
2021/12/10 12:05:15;;;;;;;26.30;11.25;;;-1.10;99.90;;;;;;5052236;28;20044;-68
2021/12/10 12:07:51;;;;;;;16.13;7.13;;;-1.20;99.90;;;;;;5053374;28;20385;-68
2021/12/10 12:10:37;;;;;;;15.32;6.55;;;-1.30;99.90;;;;;;5052056;28;20099;-69
2021/12/10 12:13:23;;;;;;;11.05;5.72;;;-1.30;99.90;;;;;;5051942;28;20040;-69
2021/12/10 12:16:13;;;;;;;9.75;3.63;;;-1.40;99.90;;;;;;5053057;28;20033;-69
2021/12/10 12:18:52;;;;;;;10.18;3.97;;;-1.40;99.90;;;;;;5052171;28;20051;-69
2021/12/10 12:27:06;;;;;;;7.55;3.45;;;-1.50;99.90;;;;;;5053227;28;20431;-68
2021/12/10 12:29:38;;;;;;;6.25;3.63;;;-1.50;99.90;;;;;;5052805;28;20028;-68
2021/12/10 12:32:15;;;;;;;11.57;4.43;;;-1.50;99.90;;;;;;5053049;28;20032;-68
2021/12/10 12:34:41;;;;;;;11.32;4.82;;;-1.40;99.90;;;;;;5052967;28;20037;-68
2021/12/10 12:37:10;;;;;;;9.40;4.57;;;-1.40;99.90;;;;;;5052936;28;20035;-68
2021/12/10 12:39:41;;;;;;;11.25;5.07;;;-1.40;99.90;;;;;;5052037;28;20052;-69
2021/12/10 12:42:44;;;;;;;12.43;3.97;;;-1.30;99.90;;;;;;5056966;28;20231;-69
2021/12/10 12:45:24;;;;;;;15.68;4.72;;;-1.30;99.90;;;;;;5056328;28;20112;-68
2021/12/10 12:47:54;;;;;;;10.18;4.20;;;-1.30;99.90;;;;;;5055546;28;20477;-68
2021/12/10 12:50:23;;;;;;;14.20;6.50;;;-1.30;99.90;;;;;;5056213;28;20385;-68
2021/12/10 12:52:55;;;;;;;11.05;5.35;;;-1.20;99.90;;;;;;5057249;28;20481;-69
2021/12/10 12:55:49;;;;;;;10.48;4.45;;;-1.20;99.90;;;;;;5049085;28;20517;-66
2021/12/10 12:58:26;;;;;;;10.77;4.68;;;-1.10;99.90;;;;;;5034804;28;20064;-69
2021/12/10 13:01:18;;;;;;;12.77;5.57;;;-1.10;99.90;;;;;;5035450;28;20025;-69
2021/12/10 13:03:49;;;;;;;20.80;8.65;;;-1.00;99.90;;;;;;5033815;28;20033;-69
2021/12/10 13:06:54;;;;;;;15.90;6.25;;;-1.00;99.90;;;;;;5034974;28;20066;-69
2021/12/10 13:09:38;;;;;;;11.52;5.45;;;-1.00;99.90;;;;;;5035594;28;20029;-68
2021/12/10 13:12:10;;;;;;;16.33;8.80;;;-1.10;99.90;;;;;;5036065;28;20072;-69
2021/12/10 13:14:51;;;;;;;18.60;8.75;;;-1.10;99.90;;;;;;5035910;28;20029;-69
2021/12/10 13:17:16;;;;;;;19.95;9.13;;;-1.00;99.90;;;;;;5036197;28;20033;-68
2021/12/10 13:19:42;;;;;;;25.42;11.32;;;-1.00;99.90;;;;;;5036334;28;20049;-68